sensor_id;sensor_type;location;lat;lon;timestamp;pressure;altitude;pressure_sealevel;temperature
86194;BMP180;76841;51.366;7.480;2024-03-08T00:00:45;99791.97;;;5.98
86194;BMP180;76841;51.366;7.480;2024-03-08T00:03:11;99775.75;;;5.81
86194;BMP180;76841;51.366;7.480;2024-03-08T00:05:36;99773.34;;;5.76
86194;BMP180;76841;51.366;7.480;2024-03-08T00:08:04;99748.06;;;5.55
86194;BMP180;76841;51.366;7.480;2024-03-08T00:10:29;99778.97;;;5.66
86194;BMP180;76841;51.366;7.480;2024-03-08T00:12:55;99779.16;;;5.60
86194;BMP180;76841;51.366;7.480;2024-03-08T00:15:20;99755.41;;;5.41
86194;BMP180;76841;51.366;7.480;2024-03-08T00:17:48;99773.06;;;5.44
86194;BMP180;76841;51.366;7.480;2024-03-08T00:20:13;99760.09;;;5.36
86194;BMP180;76841;51.366;7.480;2024-03-08T00:22:38;99757.53;;;5.27
86194;BMP180;76841;51.366;7.480;2024-03-08T00:25:05;99754.50;;;5.25
86194;BMP180;76841;51.366;7.480;2024-03-08T00:27:30;99769.28;;;5.21
86194;BMP180;76841;51.366;7.480;2024-03-08T00:29:56;99761.75;;;5.20
86194;BMP180;76841;51.366;7.480;2024-03-08T00:32:21;99752.47;;;5.10
86194;BMP180;76841;51.366;7.480;2024-03-08T00:34:49;99750.31;;;5.12
86194;BMP180;76841;51.366;7.480;2024-03-08T00:37:17;99754.19;;;5.06
86194;BMP180;76841;51.366;7.480;2024-03-08T00:39:42;99766.59;;;5.09
86194;BMP180;76841;51.366;7.480;2024-03-08T00:42:07;99758.31;;;5.07
86194;BMP180;76841;51.366;7.480;2024-03-08T00:44:33;99746.81;;;5.08
86194;BMP180;76841;51.366;7.480;2024-03-08T00:46:58;99753.75;;;5.04
86194;BMP180;76841;51.366;7.480;2024-03-08T00:49:24;99746.78;;;4.96
86194;BMP180;76841;51.366;7.480;2024-03-08T00:51:49;99755.88;;;5.11
86194;BMP180;76841;51.366;7.480;2024-03-08T00:54:14;99747.91;;;5.07
86194;BMP180;76841;51.366;7.480;2024-03-08T00:56:41;99747.13;;;5.07
86194;BMP180;76841;51.366;7.480;2024-03-08T00:59:07;99744.66;;;5.10
86194;BMP180;76841;51.366;7.480;2024-03-08T01:01:32;99733.13;;;5.11
86194;BMP180;76841;51.366;7.480;2024-03-08T01:03:57;99741.00;;;5.23
86194;BMP180;76841;51.366;7.480;2024-03-08T01:06:23;99730.56;;;5.23
86194;BMP180;76841;51.366;7.480;2024-03-08T01:08:48;99732.34;;;5.31
86194;BMP180;76841;51.366;7.480;2024-03-08T01:11:17;99726.25;;;5.27
86194;BMP180;76841;51.366;7.480;2024-03-08T01:13:42;99733.56;;;5.34
86194;BMP180;76841;51.366;7.480;2024-03-08T01:16:07;99729.53;;;5.36
86194;BMP180;76841;51.366;7.480;2024-03-08T01:18:32;99716.06;;;5.34
86194;BMP180;76841;51.366;7.480;2024-03-08T01:20:57;99702.22;;;5.22
86194;BMP180;76841;51.366;7.480;2024-03-08T01:23:23;99702.31;;;5.25
86194;BMP180;76841;51.366;7.480;2024-03-08T01:25:49;99709.97;;;5.30
86194;BMP180;76841;51.366;7.480;2024-03-08T01:28:21;99713.88;;;5.36
86194;BMP180;76841;51.366;7.480;2024-03-08T01:30:47;99705.72;;;5.38
86194;BMP180;76841;51.366;7.480;2024-03-08T01:33:12;99695.19;;;5.34
86194;BMP180;76841;51.366;7.480;2024-03-08T01:35:37;99696.03;;;5.38
86194;BMP180;76841;51.366;7.480;2024-03-08T01:38:06;99680.81;;;5.28
86194;BMP180;76841;51.366;7.480;2024-03-08T01:40:31;99689.97;;;5.34
86194;BMP180;76841;51.366;7.480;2024-03-08T01:42:56;99685.81;;;5.33
86194;BMP180;76841;51.366;7.480;2024-03-08T01:45:22;99690.50;;;5.40
86194;BMP180;76841;51.366;7.480;2024-03-08T01:47:47;99682.25;;;5.38
86194;BMP180;76841;51.366;7.480;2024-03-08T01:50:13;99671.91;;;5.29
86194;BMP180;76841;51.366;7.480;2024-03-08T01:52:39;99663.97;;;5.26
86194;BMP180;76841;51.366;7.480;2024-03-08T01:55:05;99669.47;;;5.24
86194;BMP180;76841;51.366;7.480;2024-03-08T01:57:32;99661.97;;;5.23
86194;BMP180;76841;51.366;7.480;2024-03-08T02:00:02;99660.91;;;5.24
86194;BMP180;76841;51.366;7.480;2024-03-08T02:02:32;99669.00;;;5.31
86194;BMP180;76841;51.366;7.480;2024-03-08T02:04:57;99659.03;;;5.24
86194;BMP180;76841;51.366;7.480;2024-03-08T02:07:23;99659.19;;;5.28
86194;BMP180;76841;51.366;7.480;2024-03-08T02:09:48;99662.13;;;5.26
86194;BMP180;76841;51.366;7.480;2024-03-08T02:12:13;99656.53;;;5.16
86194;BMP180;76841;51.366;7.480;2024-03-08T02:14:38;99656.97;;;5.18
86194;BMP180;76841;51.366;7.480;2024-03-08T02:17:05;99650.78;;;5.10
86194;BMP180;76841;51.366;7.480;2024-03-08T02:19:30;99660.56;;;5.13
86194;BMP180;76841;51.366;7.480;2024-03-08T02:21:56;99639.25;;;4.99
86194;BMP180;76841;51.366;7.480;2024-03-08T02:24:21;99642.81;;;5.07
86194;BMP180;76841;51.366;7.480;2024-03-08T02:26:48;99641.53;;;5.01
86194;BMP180;76841;51.366;7.480;2024-03-08T02:29:14;99640.53;;;5.05
86194;BMP180;76841;51.366;7.480;2024-03-08T02:31:39;99645.75;;;5.05
86194;BMP180;76841;51.366;7.480;2024-03-08T02:34:05;99636.41;;;5.04
86194;BMP180;76841;51.366;7.480;2024-03-08T02:36:30;99631.41;;;4.99
86194;BMP180;76841;51.366;7.480;2024-03-08T02:38:58;99640.44;;;5.02
86194;BMP180;76841;51.366;7.480;2024-03-08T02:41:23;99630.50;;;4.95
86194;BMP180;76841;51.366;7.480;2024-03-08T02:43:48;99632.94;;;5.00
86194;BMP180;76841;51.366;7.480;2024-03-08T02:46:14;99629.56;;;5.00
86194;BMP180;76841;51.366;7.480;2024-03-08T02:48:40;99621.50;;;4.93
86194;BMP180;76841;51.366;7.480;2024-03-08T02:51:05;99628.38;;;4.97
86194;BMP180;76841;51.366;7.480;2024-03-08T02:53:31;99626.84;;;4.96
86194;BMP180;76841;51.366;7.480;2024-03-08T02:55:56;99618.56;;;4.94
86194;BMP180;76841;51.366;7.480;2024-03-08T02:58:22;99613.69;;;4.93
86194;BMP180;76841;51.366;7.480;2024-03-08T03:00:47;99613.53;;;4.89
86194;BMP180;76841;51.366;7.480;2024-03-08T03:03:12;99603.22;;;4.81
86194;BMP180;76841;51.366;7.480;2024-03-08T03:05:37;99618.34;;;4.87
86194;BMP180;76841;51.366;7.480;2024-03-08T03:08:03;99613.13;;;4.87
86194;BMP180;76841;51.366;7.480;2024-03-08T03:10:34;99596.47;;;4.80
86194;BMP180;76841;51.366;7.480;2024-03-08T03:12:59;99607.03;;;4.83
86194;BMP180;76841;51.366;7.480;2024-03-08T03:15:24;99589.41;;;4.80
86194;BMP180;76841;51.366;7.480;2024-03-08T03:17:50;99593.56;;;4.81
86194;BMP180;76841;51.366;7.480;2024-03-08T03:20:16;99593.34;;;4.86
86194;BMP180;76841;51.366;7.480;2024-03-08T03:22:50;99597.81;;;4.86
86194;BMP180;76841;51.366;7.480;2024-03-08T03:25:20;99587.59;;;4.81
86194;BMP180;76841;51.366;7.480;2024-03-08T03:27:54;99589.84;;;4.82
86194;BMP180;76841;51.366;7.480;2024-03-08T03:30:22;99576.13;;;4.73
86194;BMP180;76841;51.366;7.480;2024-03-08T03:32:48;99586.81;;;4.80
86194;BMP180;76841;51.366;7.480;2024-03-08T03:35:14;99569.31;;;4.68
86194;BMP180;76841;51.366;7.480;2024-03-08T03:37:40;99575.50;;;4.76
86194;BMP180;76841;51.366;7.480;2024-03-08T03:40:08;99561.81;;;4.67
86194;BMP180;76841;51.366;7.480;2024-03-08T03:42:33;99572.31;;;4.70
86194;BMP180;76841;51.366;7.480;2024-03-08T03:44:59;99560.94;;;4.63
86194;BMP180;76841;51.366;7.480;2024-03-08T03:47:24;99575.28;;;4.69
86194;BMP180;76841;51.366;7.480;2024-03-08T03:49:49;99558.84;;;4.56
86194;BMP180;76841;51.366;7.480;2024-03-08T03:52:15;99571.34;;;4.63
86194;BMP180;76841;51.366;7.480;2024-03-08T03:54:40;99561.44;;;4.56
86194;BMP180;76841;51.366;7.480;2024-03-08T03:57:05;99570.31;;;4.55
86194;BMP180;76841;51.366;7.480;2024-03-08T03:59:32;99560.22;;;4.54
86194;BMP180;76841;51.366;7.480;2024-03-08T04:01:58;99566.94;;;4.55
86194;BMP180;76841;51.366;7.480;2024-03-08T04:04:23;99535.41;;;4.36
86194;BMP180;76841;51.366;7.480;2024-03-08T04:06:50;99559.81;;;4.52
86194;BMP180;76841;51.366;7.480;2024-03-08T04:09:16;99563.50;;;4.51
86194;BMP180;76841;51.366;7.480;2024-03-08T04:11:44;99553.69;;;4.48
86194;BMP180;76841;51.366;7.480;2024-03-08T04:14:09;99550.97;;;4.44
86194;BMP180;76841;51.366;7.480;2024-03-08T04:16:35;99552.81;;;4.44
86194;BMP180;76841;51.366;7.480;2024-03-08T04:19:00;99558.16;;;4.47
86194;BMP180;76841;51.366;7.480;2024-03-08T04:21:30;99539.09;;;4.35
86194;BMP180;76841;51.366;7.480;2024-03-08T04:23:55;99541.31;;;4.45
86194;BMP180;76841;51.366;7.480;2024-03-08T04:26:20;99536.94;;;4.37
86194;BMP180;76841;51.366;7.480;2024-03-08T04:28:45;99553.25;;;4.46
86194;BMP180;76841;51.366;7.480;2024-03-08T04:31:11;99540.88;;;4.43
86194;BMP180;76841;51.366;7.480;2024-03-08T04:33:36;99537.69;;;4.37
86194;BMP180;76841;51.366;7.480;2024-03-08T04:36:02;99549.75;;;4.42
86194;BMP180;76841;51.366;7.480;2024-03-08T04:38:30;99530.88;;;4.33
86194;BMP180;76841;51.366;7.480;2024-03-08T04:40:56;99544.56;;;4.42
86194;BMP180;76841;51.366;7.480;2024-03-08T04:43:22;99537.56;;;4.34
86194;BMP180;76841;51.366;7.480;2024-03-08T04:45:50;99533.88;;;4.35
86194;BMP180;76841;51.366;7.480;2024-03-08T04:48:16;99524.75;;;4.29
86194;BMP180;76841;51.366;7.480;2024-03-08T04:50:41;99528.59;;;4.31
86194;BMP180;76841;51.366;7.480;2024-03-08T04:53:06;99524.00;;;4.28
86194;BMP180;76841;51.366;7.480;2024-03-08T04:55:33;99529.97;;;4.29
86194;BMP180;76841;51.366;7.480;2024-03-08T04:57:59;99537.47;;;4.30
86194;BMP180;76841;51.366;7.480;2024-03-08T05:00:24;99536.06;;;4.33
86194;BMP180;76841;51.366;7.480;2024-03-08T05:02:50;99508.13;;;4.21
86194;BMP180;76841;51.366;7.480;2024-03-08T05:05:18;99511.16;;;4.23
86194;BMP180;76841;51.366;7.480;2024-03-08T05:07:43;99510.38;;;4.23
86194;BMP180;76841;51.366;7.480;2024-03-08T05:10:10;99516.25;;;4.20
86194;BMP180;76841;51.366;7.480;2024-03-08T05:12:36;99520.06;;;4.22
86194;BMP180;76841;51.366;7.480;2024-03-08T05:15:04;99509.50;;;4.19
86194;BMP180;76841;51.366;7.480;2024-03-08T05:17:30;99497.59;;;4.18
86194;BMP180;76841;51.366;7.480;2024-03-08T05:19:55;99505.31;;;4.26
86194;BMP180;76841;51.366;7.480;2024-03-08T05:22:20;99498.47;;;4.22
86194;BMP180;76841;51.366;7.480;2024-03-08T05:24:46;99514.56;;;4.36
86194;BMP180;76841;51.366;7.480;2024-03-08T05:27:11;99510.03;;;4.33
86194;BMP180;76841;51.366;7.480;2024-03-08T05:29:38;99520.53;;;4.36
86194;BMP180;76841;51.366;7.480;2024-03-08T05:32:03;99510.03;;;4.33
86194;BMP180;76841;51.366;7.480;2024-03-08T05:34:29;99512.41;;;4.38
86194;BMP180;76841;51.366;7.480;2024-03-08T05:36:54;99510.69;;;4.42
86194;BMP180;76841;51.366;7.480;2024-03-08T05:39:20;99506.56;;;4.41
86194;BMP180;76841;51.366;7.480;2024-03-08T05:41:45;99499.84;;;4.40
86194;BMP180;76841;51.366;7.480;2024-03-08T05:44:11;99506.56;;;4.41
86194;BMP180;76841;51.366;7.480;2024-03-08T05:46:37;99511.56;;;4.46
86194;BMP180;76841;51.366;7.480;2024-03-08T05:49:06;99499.84;;;4.40
86194;BMP180;76841;51.366;7.480;2024-03-08T05:51:32;99502.38;;;4.48
86194;BMP180;76841;51.366;7.480;2024-03-08T05:54:00;99492.91;;;4.44
86194;BMP180;76841;51.366;7.480;2024-03-08T05:56:27;99506.19;;;4.51
86194;BMP180;76841;51.366;7.480;2024-03-08T05:58:54;99490.28;;;4.44
86194;BMP180;76841;51.366;7.480;2024-03-08T06:01:19;99503.56;;;4.51
86194;BMP180;76841;51.366;7.480;2024-03-08T06:03:44;99500.31;;;4.54
86194;BMP180;76841;51.366;7.480;2024-03-08T06:06:13;99505.31;;;4.59
86194;BMP180;76841;51.366;7.480;2024-03-08T06:08:39;99505.88;;;4.64
86194;BMP180;76841;51.366;7.480;2024-03-08T06:11:05;99496.22;;;4.65
86194;BMP180;76841;51.366;7.480;2024-03-08T06:13:31;99508.59;;;4.68
86194;BMP180;76841;51.366;7.480;2024-03-08T06:15:57;99492.66;;;4.69
86194;BMP180;76841;51.366;7.480;2024-03-08T06:18:22;99497.31;;;4.76
86194;BMP180;76841;51.366;7.480;2024-03-08T06:20:47;99508.19;;;4.90
86194;BMP180;76841;51.366;7.480;2024-03-08T06:23:13;99504.72;;;4.98
86194;BMP180;76841;51.366;7.480;2024-03-08T06:25:43;99500.50;;;5.06
86194;BMP180;76841;51.366;7.480;2024-03-08T06:28:08;99498.22;;;5.16
86194;BMP180;76841;51.366;7.480;2024-03-08T06:30:34;99500.63;;;5.21
86194;BMP180;76841;51.366;7.480;2024-03-08T06:32:59;99496.91;;;5.34
86194;BMP180;76841;51.366;7.480;2024-03-08T06:35:25;99498.75;;;5.46
86194;BMP180;76841;51.366;7.480;2024-03-08T06:37:50;99497.75;;;5.63
86194;BMP180;76841;51.366;7.480;2024-03-08T06:40:15;99496.84;;;5.71
86194;BMP180;76841;51.366;7.480;2024-03-08T06:42:41;99487.88;;;5.84
86194;BMP180;76841;51.366;7.480;2024-03-08T06:45:06;99493.03;;;6.08
86194;BMP180;76841;51.366;7.480;2024-03-08T06:47:34;99498.41;;;6.42
86194;BMP180;76841;51.366;7.480;2024-03-08T06:49:59;99499.69;;;6.80
86194;BMP180;76841;51.366;7.480;2024-03-08T06:52:24;99503.94;;;7.19
86194;BMP180;76841;51.366;7.480;2024-03-08T06:54:50;99511.22;;;7.60
86194;BMP180;76841;51.366;7.480;2024-03-08T06:57:17;99510.13;;;7.99
86194;BMP180;76841;51.366;7.480;2024-03-08T06:59:43;99512.19;;;8.32
86194;BMP180;76841;51.366;7.480;2024-03-08T07:02:08;99504.50;;;8.65
86194;BMP180;76841;51.366;7.480;2024-03-08T07:04:34;99507.06;;;9.10
86194;BMP180;76841;51.366;7.480;2024-03-08T07:07:05;99509.47;;;9.48
86194;BMP180;76841;51.366;7.480;2024-03-08T07:09:35;99511.44;;;9.92
86194;BMP180;76841;51.366;7.480;2024-03-08T07:12:00;99505.06;;;10.33
86194;BMP180;76841;51.366;7.480;2024-03-08T07:14:26;99496.66;;;10.64
86194;BMP180;76841;51.366;7.480;2024-03-08T07:16:52;99510.47;;;11.08
86194;BMP180;76841;51.366;7.480;2024-03-08T07:19:17;99505.34;;;11.40
86194;BMP180;76841;51.366;7.480;2024-03-08T07:21:44;99502.09;;;11.89
86194;BMP180;76841;51.366;7.480;2024-03-08T07:24:10;99496.09;;;12.27
86194;BMP180;76841;51.366;7.480;2024-03-08T07:26:41;99491.56;;;12.59
86194;BMP180;76841;51.366;7.480;2024-03-08T07:29:07;99506.94;;;12.92
86194;BMP180;76841;51.366;7.480;2024-03-08T07:31:33;99504.97;;;13.17
86194;BMP180;76841;51.366;7.480;2024-03-08T07:34:07;99480.31;;;13.41
86194;BMP180;76841;51.366;7.480;2024-03-08T07:36:33;99490.66;;;13.83
86194;BMP180;76841;51.366;7.480;2024-03-08T07:39:00;99495.41;;;14.06
86194;BMP180;76841;51.366;7.480;2024-03-08T07:41:25;99485.56;;;14.47
86194;BMP180;76841;51.366;7.480;2024-03-08T07:43:51;99487.88;;;14.79
86194;BMP180;76841;51.366;7.480;2024-03-08T07:46:17;99494.66;;;15.13
86194;BMP180;76841;51.366;7.480;2024-03-08T07:48:44;99487.31;;;15.28
86194;BMP180;76841;51.366;7.480;2024-03-08T07:51:10;99472.59;;;15.46
86194;BMP180;76841;51.366;7.480;2024-03-08T07:53:37;99486.00;;;15.66
86194;BMP180;76841;51.366;7.480;2024-03-08T07:56:03;99487.97;;;16.08
86194;BMP180;76841;51.366;7.480;2024-03-08T07:58:30;99479.31;;;16.47
86194;BMP180;76841;51.366;7.480;2024-03-08T08:00:55;99472.13;;;16.83
86194;BMP180;76841;51.366;7.480;2024-03-08T08:03:20;99470.63;;;17.01
86194;BMP180;76841;51.366;7.480;2024-03-08T08:05:46;99484.44;;;17.28
86194;BMP180;76841;51.366;7.480;2024-03-08T08:08:11;99466.25;;;17.43
86194;BMP180;76841;51.366;7.480;2024-03-08T08:10:37;99466.34;;;17.56
86194;BMP180;76841;51.366;7.480;2024-03-08T08:13:02;99466.56;;;17.77
86194;BMP180;76841;51.366;7.480;2024-03-08T08:15:29;99461.84;;;17.69
86194;BMP180;76841;51.366;7.480;2024-03-08T08:17:55;99458.91;;;17.79
86194;BMP180;76841;51.366;7.480;2024-03-08T08:20:20;99468.28;;;18.00
86194;BMP180;76841;51.366;7.480;2024-03-08T08:22:46;99460.25;;;18.16
86194;BMP180;76841;51.366;7.480;2024-03-08T08:25:13;99438.94;;;18.16
86194;BMP180;76841;51.366;7.480;2024-03-08T08:27:40;99450.34;;;18.45
86194;BMP180;76841;51.366;7.480;2024-03-08T08:30:07;99441.63;;;18.57
86194;BMP180;76841;51.366;7.480;2024-03-08T08:32:34;99444.84;;;18.77
86194;BMP180;76841;51.366;7.480;2024-03-08T08:35:00;99437.66;;;18.86
86194;BMP180;76841;51.366;7.480;2024-03-08T08:37:27;99438.94;;;19.07
86194;BMP180;76841;51.366;7.480;2024-03-08T08:39:53;99449.44;;;19.48
86194;BMP180;76841;51.366;7.480;2024-03-08T08:42:19;99429.13;;;19.63
86194;BMP180;76841;51.366;7.480;2024-03-08T08:44:44;99426.91;;;19.83
86194;BMP180;76841;51.366;7.480;2024-03-08T08:47:09;99438.34;;;20.27
86194;BMP180;76841;51.366;7.480;2024-03-08T08:49:35;99432.81;;;20.21
86194;BMP180;76841;51.366;7.480;2024-03-08T08:52:00;99441.81;;;20.36
86194;BMP180;76841;51.366;7.480;2024-03-08T08:54:26;99428.75;;;20.38
86194;BMP180;76841;51.366;7.480;2024-03-08T08:56:52;99420.13;;;20.34
86194;BMP180;76841;51.366;7.480;2024-03-08T08:59:18;99408.22;;;20.57
86194;BMP180;76841;51.366;7.480;2024-03-08T09:01:45;99412.84;;;20.74
86194;BMP180;76841;51.366;7.480;2024-03-08T09:04:12;99423.03;;;21.06
86194;BMP180;76841;51.366;7.480;2024-03-08T09:06:37;99408.75;;;21.00
86194;BMP180;76841;51.366;7.480;2024-03-08T09:09:03;99412.34;;;21.06
86194;BMP180;76841;51.366;7.480;2024-03-08T09:11:29;99406.84;;;21.19
86194;BMP180;76841;51.366;7.480;2024-03-08T09:13:55;99398.38;;;21.47
86194;BMP180;76841;51.366;7.480;2024-03-08T09:16:20;99388.13;;;21.55
86194;BMP180;76841;51.366;7.480;2024-03-08T09:18:45;99399.50;;;22.01
86194;BMP180;76841;51.366;7.480;2024-03-08T09:21:10;99393.38;;;22.09
86194;BMP180;76841;51.366;7.480;2024-03-08T09:23:36;99371.94;;;22.18
86194;BMP180;76841;51.366;7.480;2024-03-08T09:26:01;99383.91;;;22.32
86194;BMP180;76841;51.366;7.480;2024-03-08T09:28:29;99385.03;;;22.49
86194;BMP180;76841;51.366;7.480;2024-03-08T09:30:54;99372.00;;;22.42
86194;BMP180;76841;51.366;7.480;2024-03-08T09:33:20;99368.06;;;22.43
86194;BMP180;76841;51.366;7.480;2024-03-08T09:35:46;99369.66;;;22.26
86194;BMP180;76841;51.366;7.480;2024-03-08T09:38:12;99368.44;;;21.94
86194;BMP180;76841;51.366;7.480;2024-03-08T09:40:38;99338.75;;;21.47
86194;BMP180;76841;51.366;7.480;2024-03-08T09:43:04;99357.22;;;21.45
86194;BMP180;76841;51.366;7.480;2024-03-08T09:45:31;99351.81;;;20.91
86194;BMP180;76841;51.366;7.480;2024-03-08T09:48:01;99355.06;;;20.28
86194;BMP180;76841;51.366;7.480;2024-03-08T09:50:26;99326.81;;;19.66
86194;BMP180;76841;51.366;7.480;2024-03-08T09:52:53;99324.69;;;19.40
86194;BMP180;76841;51.366;7.480;2024-03-08T09:55:22;99332.44;;;19.25
86194;BMP180;76841;51.366;7.480;2024-03-08T09:57:47;99322.41;;;18.95
86194;BMP180;76841;51.366;7.480;2024-03-08T10:00:33;99315.19;;;18.58
86194;BMP180;76841;51.366;7.480;2024-03-08T10:03:02;99312.59;;;18.42
86194;BMP180;76841;51.366;7.480;2024-03-08T10:05:28;99309.28;;;18.50
86194;BMP180;76841;51.366;7.480;2024-03-08T10:07:54;99298.97;;;18.40
86194;BMP180;76841;51.366;7.480;2024-03-08T10:10:19;99299.28;;;18.42
86194;BMP180;76841;51.366;7.480;2024-03-08T10:12:46;99310.38;;;18.53
86194;BMP180;76841;51.366;7.480;2024-03-08T10:15:11;99315.06;;;18.36
86194;BMP180;76841;51.366;7.480;2024-03-08T10:17:37;99304.19;;;18.18
86194;BMP180;76841;51.366;7.480;2024-03-08T10:20:13;99298.00;;;17.96
86194;BMP180;76841;51.366;7.480;2024-03-08T10:22:40;99297.63;;;17.82
86194;BMP180;76841;51.366;7.480;2024-03-08T10:25:08;99281.13;;;17.46
86194;BMP180;76841;51.366;7.480;2024-03-08T10:27:35;99287.50;;;17.03
86194;BMP180;76841;51.366;7.480;2024-03-08T10:30:00;99282.00;;;16.46
86194;BMP180;76841;51.366;7.480;2024-03-08T10:32:26;99282.63;;;16.18
86194;BMP180;76841;51.366;7.480;2024-03-08T10:34:51;99282.06;;;15.68
86194;BMP180;76841;51.366;7.480;2024-03-08T10:37:21;99262.41;;;15.46
86194;BMP180;76841;51.366;7.480;2024-03-08T10:40:01;99271.47;;;15.25
86194;BMP180;76841;51.366;7.480;2024-03-08T10:42:39;99271.41;;;15.06
86194;BMP180;76841;51.366;7.480;2024-03-08T10:45:06;99254.38;;;15.07
86194;BMP180;76841;51.366;7.480;2024-03-08T10:47:41;99272.47;;;15.08
86194;BMP180;76841;51.366;7.480;2024-03-08T10:50:19;99234.88;;;14.94
86194;BMP180;76841;51.366;7.480;2024-03-08T10:52:52;99258.94;;;15.03
86194;BMP180;76841;51.366;7.480;2024-03-08T10:55:19;99236.94;;;15.06
86194;BMP180;76841;51.366;7.480;2024-03-08T10:57:46;99238.31;;;14.91
86194;BMP180;76841;51.366;7.480;2024-03-08T11:00:13;99236.94;;;15.06
86194;BMP180;76841;51.366;7.480;2024-03-08T11:02:42;99226.47;;;14.76
86194;BMP180;76841;51.366;7.480;2024-03-08T11:05:10;99232.88;;;14.75
86194;BMP180;76841;51.366;7.480;2024-03-08T11:07:42;99226.63;;;14.88
86194;BMP180;76841;51.366;7.480;2024-03-08T11:10:18;99217.94;;;14.88
86194;BMP180;76841;51.366;7.480;2024-03-08T11:12:44;99203.56;;;14.62
86194;BMP180;76841;51.366;7.480;2024-03-08T11:15:12;99213.59;;;14.97
86194;BMP180;76841;51.366;7.480;2024-03-08T11:20:10;99211.47;;;15.35
86194;BMP180;76841;51.366;7.480;2024-03-08T11:22:41;99224.84;;;15.28
86194;BMP180;76841;51.366;7.480;2024-03-08T11:25:30;99209.97;;;15.34
86194;BMP180;76841;51.366;7.480;2024-03-08T11:28:11;99202.31;;;15.39
86194;BMP180;76841;51.366;7.480;2024-03-08T11:30:43;99199.84;;;15.29
86194;BMP180;76841;51.366;7.480;2024-03-08T11:33:13;99199.47;;;15.27
86194;BMP180;76841;51.366;7.480;2024-03-08T11:35:39;99194.25;;;15.23
86194;BMP180;76841;51.366;7.480;2024-03-08T11:38:04;99188.41;;;15.12
86194;BMP180;76841;51.366;7.480;2024-03-08T11:40:29;99174.91;;;15.03
86194;BMP180;76841;51.366;7.480;2024-03-08T11:42:54;99176.50;;;15.01
86194;BMP180;76841;51.366;7.480;2024-03-08T11:45:20;99168.88;;;15.03
86194;BMP180;76841;51.366;7.480;2024-03-08T11:47:50;99189.06;;;15.16
86194;BMP180;76841;51.366;7.480;2024-03-08T11:50:15;99189.84;;;15.17
86194;BMP180;76841;51.366;7.480;2024-03-08T11:52:42;99175.81;;;15.36
86194;BMP180;76841;51.366;7.480;2024-03-08T11:55:08;99163.75;;;15.35
86194;BMP180;76841;51.366;7.480;2024-03-08T11:57:33;99147.13;;;15.31
86194;BMP180;76841;51.366;7.480;2024-03-08T11:59:59;99159.16;;;15.16
86194;BMP180;76841;51.366;7.480;2024-03-08T12:02:35;99149.50;;;15.06
86194;BMP180;76841;51.366;7.480;2024-03-08T12:05:04;99114.88;;;14.74
86194;BMP180;76841;51.366;7.480;2024-03-08T12:07:31;99128.81;;;14.78
86194;BMP180;76841;51.366;7.480;2024-03-08T12:10:16;99138.09;;;14.89
86194;BMP180;76841;51.366;7.480;2024-03-08T12:12:45;99125.91;;;14.92
86194;BMP180;76841;51.366;7.480;2024-03-08T12:15:12;99122.78;;;14.97
86194;BMP180;76841;51.366;7.480;2024-03-08T12:17:39;99106.75;;;15.04
86194;BMP180;76841;51.366;7.480;2024-03-08T12:20:24;99109.63;;;15.13
86194;BMP180;76841;51.366;7.480;2024-03-08T12:22:57;99094.28;;;15.24
86194;BMP180;76841;51.366;7.480;2024-03-08T12:25:32;99102.00;;;15.54
86194;BMP180;76841;51.366;7.480;2024-03-08T12:28:10;99068.84;;;15.46
86194;BMP180;76841;51.366;7.480;2024-03-08T12:30:48;99088.56;;;15.45
86194;BMP180;76841;51.366;7.480;2024-03-08T12:33:14;99090.38;;;15.28
86194;BMP180;76841;51.366;7.480;2024-03-08T12:35:40;99078.44;;;15.20
86194;BMP180;76841;51.366;7.480;2024-03-08T12:38:06;99079.78;;;15.09
86194;BMP180;76841;51.366;7.480;2024-03-08T12:40:33;99062.94;;;14.99
86194;BMP180;76841;51.366;7.480;2024-03-08T12:43:00;99069.53;;;15.11
86194;BMP180;76841;51.366;7.480;2024-03-08T12:45:27;99067.34;;;15.06
86194;BMP180;76841;51.366;7.480;2024-03-08T12:47:53;99056.22;;;14.95
86194;BMP180;76841;51.366;7.480;2024-03-08T12:50:20;99059.91;;;15.01
86194;BMP180;76841;51.366;7.480;2024-03-08T12:52:45;99054.09;;;15.06
86194;BMP180;76841;51.366;7.480;2024-03-08T12:55:11;99037.38;;;15.09
86194;BMP180;76841;51.366;7.480;2024-03-08T12:57:37;99036.84;;;15.17
86194;BMP180;76841;51.366;7.480;2024-03-08T13:00:03;99040.19;;;15.21
86194;BMP180;76841;51.366;7.480;2024-03-08T13:02:29;99031.13;;;15.19
86194;BMP180;76841;51.366;7.480;2024-03-08T13:04:56;99036.84;;;14.98
86194;BMP180;76841;51.366;7.480;2024-03-08T13:07:25;99028.75;;;14.66
86194;BMP180;76841;51.366;7.480;2024-03-08T13:09:54;99033.69;;;14.64
86194;BMP180;76841;51.366;7.480;2024-03-08T13:12:23;99014.72;;;14.46
86194;BMP180;76841;51.366;7.480;2024-03-08T13:14:49;99019.41;;;14.38
86194;BMP180;76841;51.366;7.480;2024-03-08T13:17:15;99015.16;;;14.44
86194;BMP180;76841;51.366;7.480;2024-03-08T13:19:40;99013.66;;;14.43
86194;BMP180;76841;51.366;7.480;2024-03-08T13:22:07;99014.16;;;14.34
86194;BMP180;76841;51.366;7.480;2024-03-08T13:24:34;99002.81;;;14.34
86194;BMP180;76841;51.366;7.480;2024-03-08T13:26:59;99011.88;;;14.37
86194;BMP180;76841;51.366;7.480;2024-03-08T13:29:25;99014.94;;;14.35
86194;BMP180;76841;51.366;7.480;2024-03-08T13:31:50;99003.19;;;14.36
86194;BMP180;76841;51.366;7.480;2024-03-08T13:34:17;98986.19;;;14.33
86194;BMP180;76841;51.366;7.480;2024-03-08T13:36:43;98999.09;;;14.31
86194;BMP180;76841;51.366;7.480;2024-03-08T13:39:10;98997.78;;;14.20
86194;BMP180;76841;51.366;7.480;2024-03-08T13:41:41;98973.09;;;14.03
86194;BMP180;76841;51.366;7.480;2024-03-08T13:44:07;98969.44;;;13.97
86194;BMP180;76841;51.366;7.480;2024-03-08T13:46:33;98991.41;;;14.17
86194;BMP180;76841;51.366;7.480;2024-03-08T13:49:04;98984.59;;;14.16
86194;BMP180;76841;51.366;7.480;2024-03-08T13:51:33;98987.25;;;14.16
86194;BMP180;76841;51.366;7.480;2024-03-08T13:53:58;98972.59;;;14.12
86194;BMP180;76841;51.366;7.480;2024-03-08T13:56:26;98958.16;;;13.93
86194;BMP180;76841;51.366;7.480;2024-03-08T13:58:51;98951.53;;;13.82
86194;BMP180;76841;51.366;7.480;2024-03-08T14:01:16;98954.69;;;13.73
86194;BMP180;76841;51.366;7.480;2024-03-08T14:03:42;98954.66;;;13.77
86194;BMP180;76841;51.366;7.480;2024-03-08T14:06:07;98949.41;;;13.73
86194;BMP180;76841;51.366;7.480;2024-03-08T14:08:33;98944.94;;;13.70
86194;BMP180;76841;51.366;7.480;2024-03-08T14:10:58;98934.38;;;13.70
86194;BMP180;76841;51.366;7.480;2024-03-08T14:13:24;98942.97;;;13.74